Arba, Indiana
Current Conditions -  °F | °C
As of 6:55 PM on Thursday 27 Nov 2014 (Local Time) from KVES Reporting Station
Light Snow Light Snow  
Wind Chill: 18°   Ceiling: 1700
Heat Index: 28°   Visibility: 10mi
Dew Point: 25°   Wind: 13mph
Humidity: 86%   Direction: 290°WNW
Pressure: 30.32"   Gusts: NA
Location:  40.0606°N, 84.9258°W
Report Text: KVES 272355Z AUTO 29011KT 10SM -SN OVC017 M02/M04 A3032 RMK AO2
Loading
Personal Weather Stations






























Interactive Weather Map New forecast layout! Learn more

10-Day Weather Forecast

Advertisements
Track Severe Weather on mobile